Time;durP1;ratioP1;P1;durP2;ratioP2;P2;SDS_P1;SDS_P2;PMS_P1;PMS_P2;Temp;Humidity;BMP_temperature;BMP_pressure;BME280_temperature;BME280_humidity;BME280_pressure;Samples;Min_cycle;Max_cycle;Signal;HPM_P1;HPM_P2
2023/12/12 00:00:43;;;;;;;3.55;1.58;;;;;;;;;;4981577;28;20057;-82
2023/12/12 00:03:09;;;;;;;5.82;1.60;;;;;;;;;;4982378;28;20035;-83
2023/12/12 00:05:36;;;;;;;5.60;1.70;;;;;;;;;;4983360;28;20058;-84
2023/12/12 00:08:03;;;;;;;7.20;1.60;;;;;;;;;;4982044;28;20011;-83
2023/12/12 00:10:38;;;;;;;3.97;2.10;;;;;;;;;;4982058;28;20039;-83
2023/12/12 00:13:07;;;;;;;5.63;1.75;;;;;;;;;;4981515;28;20043;-82
2023/12/12 00:15:33;;;;;;;3.67;1.60;;;;;;;;;;4950393;28;20049;-83
2023/12/12 00:18:03;;;;;;;4.28;1.70;;;;;;;;;;4965221;28;20039;-82
2023/12/12 00:20:31;;;;;;;;;;;;;;;;;;4949139;28;20046;-83
2023/12/12 00:22:59;;;;;;;4.18;1.50;;;;;;;;;;4964239;28;19897;-83
2023/12/12 00:25:30;;;;;;;4.90;1.67;;;;;;;;;;4979687;28;20035;-82
2023/12/12 00:27:56;;;;;;;2.80;1.30;;;;;;;;;;4966252;28;20015;-81
2023/12/12 00:30:25;;;;;;;4.70;1.25;;;;;;;;;;4950631;28;20037;-82
2023/12/12 00:32:52;;;;;;;6.47;1.40;;;;;;;;;;4965897;28;20070;-81
2023/12/12 00:35:18;;;;;;;4.20;1.50;;;;;;;;;;4982008;28;20026;-82
2023/12/12 00:37:44;;;;;;;3.28;1.60;;;;;;;;;;4982500;28;20046;-82
2023/12/12 00:40:14;;;;;;;5.38;1.77;;;;;;;;;;4966375;28;20055;-81
2023/12/12 00:42:47;;;;;;;7.15;1.65;;;;;;;;;;4983425;28;20099;-82
2023/12/12 00:45:24;;;;;;;6.32;1.42;;;;;;;;;;4983098;28;20042;-83
2023/12/12 00:47:57;;;;;;;5.05;1.50;;;;;;;;;;4952047;28;20038;-82
2023/12/12 00:50:22;;;;;;;;;;;;;;;;;;4984073;28;20019;-83
2023/12/12 00:52:50;;;;;;;3.28;1.50;;;;;;;;;;4982874;28;20005;-81
2023/12/12 00:55:17;;;;;;;3.67;1.57;;;;;;;;;;4951229;28;20035;-81
2023/12/12 00:57:43;;;;;;;3.50;1.58;;;;;;;;;;4982664;28;20053;-82
2023/12/12 01:00:11;;;;;;;4.30;1.60;;;;;;;;;;4982970;28;20039;-81
2023/12/12 01:02:41;;;;;;;3.58;1.48;;;;;;;;;;4951316;28;20280;-82
2023/12/12 01:05:10;;;;;;;4.68;1.60;;;;;;;;;;4998881;28;20019;-82
2023/12/12 01:07:43;;;;;;;6.00;1.60;;;;;;;;;;4983726;28;20054;-82
2023/12/12 01:10:12;;;;;;;6.10;2.22;;;;;;;;;;4967340;28;20058;-82
2023/12/12 01:12:40;;;;;;;4.68;1.77;;;;;;;;;;4982349;28;20047;-82
2023/12/12 01:15:08;;;;;;;8.93;2.90;;;;;;;;;;4951206;28;20043;-82
2023/12/12 01:17:38;;;;;;;5.22;1.70;;;;;;;;;;4966785;28;20050;-82
2023/12/12 01:20:08;;;;;;;6.35;2.20;;;;;;;;;;4951424;28;20039;-82
2023/12/12 01:22:36;;;;;;;6.03;2.30;;;;;;;;;;4981983;28;20110;-82
2023/12/12 01:25:06;;;;;;;4.10;1.63;;;;;;;;;;4966205;28;20053;-82
2023/12/12 01:27:34;;;;;;;4.78;2.00;;;;;;;;;;4966560;28;20037;-83
2023/12/12 01:30:04;;;;;;;4.53;1.83;;;;;;;;;;4950966;28;20066;-83
2023/12/12 01:32:31;;;;;;;5.30;1.90;;;;;;;;;;4966719;28;20063;-82
2023/12/12 01:34:57;;;;;;;4.60;1.58;;;;;;;;;;4966145;28;20094;-83
2023/12/12 01:37:25;;;;;;;5.82;1.90;;;;;;;;;;4949126;28;20054;-82
2023/12/12 01:39:54;;;;;;;4.95;1.98;;;;;;;;;;4949238;28;20058;-82
2023/12/12 01:42:20;;;;;;;4.22;1.90;;;;;;;;;;4980164;28;20062;-82
2023/12/12 01:44:46;;;;;;;6.45;2.58;;;;;;;;;;4951128;28;20046;-81
2023/12/12 01:47:15;;;;;;;4.25;2.30;;;;;;;;;;4982804;28;20050;-82
2023/12/12 01:49:42;;;;;;;6.72;2.03;;;;;;;;;;4950553;28;20134;-83
2023/12/12 01:52:08;;;;;;;4.65;2.05;;;;;;;;;;4982062;28;20034;-82
2023/12/12 01:54:36;;;;;;;4.80;1.80;;;;;;;;;;4950252;28;20069;-83
2023/12/12 01:57:02;;;;;;;5.57;1.75;;;;;;;;;;4950219;28;20035;-81
2023/12/12 01:59:28;;;;;;;3.72;1.48;;;;;;;;;;4981668;28;20019;-81
2023/12/12 02:01:55;;;;;;;2.40;1.35;;;;;;;;;;4996171;28;20030;-82
2023/12/12 02:04:21;;;;;;;3.53;1.50;;;;;;;;;;4966370;28;20023;-81
2023/12/12 02:06:48;;;;;;;2.67;1.30;;;;;;;;;;4982999;28;20042;-80
2023/12/12 02:09:15;;;;;;;4.40;1.58;;;;;;;;;;4951038;28;20041;-82
2023/12/12 02:11:45;;;;;;;3.53;1.55;;;;;;;;;;4982925;28;20045;-82
2023/12/12 02:14:11;;;;;;;3.60;1.40;;;;;;;;;;4950190;28;20026;-81
2023/12/12 02:16:38;;;;;;;3.20;1.17;;;;;;;;;;4983169;28;20022;-82
2023/12/12 02:19:04;;;;;;;4.30;1.20;;;;;;;;;;4950941;28;20042;-81
2023/12/12 02:21:32;;;;;;;3.92;1.20;;;;;;;;;;4951104;28;20242;-82
2023/12/12 02:23:58;;;;;;;2.60;0.80;;;;;;;;;;4982492;28;20022;-82
2023/12/12 02:26:24;;;;;;;3.40;1.20;;;;;;;;;;4950946;28;20050;-81
2023/12/12 02:28:50;;;;;;;3.97;1.30;;;;;;;;;;4982564;28;20062;-83
2023/12/12 02:31:16;;;;;;;3.90;0.90;;;;;;;;;;4998215;28;20010;-82
2023/12/12 02:33:47;;;;;;;3.38;1.17;;;;;;;;;;4965711;28;20050;-83
2023/12/12 02:36:15;;;;;;;3.22;1.05;;;;;;;;;;4966246;28;20114;-82
2023/12/12 02:38:42;;;;;;;3.97;1.08;;;;;;;;;;4998056;28;20101;-81
2023/12/12 02:41:08;;;;;;;2.80;0.77;;;;;;;;;;4982242;28;20026;-83
2023/12/12 02:43:35;;;;;;;2.13;1.00;;;;;;;;;;4982551;28;20031;-82
2023/12/12 02:46:03;;;;;;;1.77;0.93;;;;;;;;;;4997329;28;20015;-83
2023/12/12 02:48:31;;;;;;;2.35;1.00;;;;;;;;;;4968506;28;20094;-83
2023/12/12 02:50:58;;;;;;;3.95;1.52;;;;;;;;;;4985353;28;20030;-83
2023/12/12 02:53:23;;;;;;;5.00;1.20;;;;;;;;;;4985432;28;20026;-82
2023/12/12 02:55:49;;;;;;;4.47;1.25;;;;;;;;;;4985360;28;20036;-83
2023/12/12 02:58:15;;;;;;;2.80;1.42;;;;;;;;;;4985616;28;20035;-83
2023/12/12 03:00:44;;;;;;;4.13;1.15;;;;;;;;;;4952899;28;20037;-82
2023/12/12 03:03:13;;;;;;;2.63;1.25;;;;;;;;;;4952814;28;20054;-83
2023/12/12 03:05:38;;;;;;;1.80;1.00;;;;;;;;;;4985219;28;20030;-80
2023/12/12 03:08:07;;;;;;;4.25;1.30;;;;;;;;;;4984343;28;20035;-83
2023/12/12 03:10:32;;;;;;;3.10;1.25;;;;;;;;;;5000080;28;20046;-83
2023/12/12 03:12:58;;;;;;;5.82;1.35;;;;;;;;;;4967155;28;20089;-83
2023/12/12 03:15:24;;;;;;;4.50;1.63;;;;;;;;;;4966936;28;20027;-82
2023/12/12 03:17:50;;;;;;;3.13;1.20;;;;;;;;;;4984549;28;20118;-82
2023/12/12 03:20:21;;;;;;;3.03;1.35;;;;;;;;;;5001039;28;20066;-82
2023/12/12 03:22:47;;;;;;;2.40;1.20;;;;;;;;;;4952884;28;20035;-82
2023/12/12 03:25:13;;;;;;;7.18;1.60;;;;;;;;;;4953901;28;20037;-81
2023/12/12 03:27:38;;;;;;;4.70;1.67;;;;;;;;;;4985718;28;20038;-82
2023/12/12 03:30:06;;;;;;;3.97;1.40;;;;;;;;;;4953920;28;20118;-79
2023/12/12 03:32:32;;;;;;;3.13;1.30;;;;;;;;;;5001436;28;20046;-82
2023/12/12 03:34:57;;;;;;;5.28;1.90;;;;;;;;;;4953381;28;20098;-82
2023/12/12 03:37:27;;;;;;;4.13;1.70;;;;;;;;;;4984993;28;20042;-82
2023/12/12 03:39:53;;;;;;;4.65;1.70;;;;;;;;;;4953373;28;20045;-81
2023/12/12 03:42:19;;;;;;;4.65;1.80;;;;;;;;;;4984611;28;20041;-80
2023/12/12 03:44:45;;;;;;;3.58;1.83;;;;;;;;;;4952664;28;20042;-81
2023/12/12 03:47:16;;;;;;;3.70;1.70;;;;;;;;;;4969598;28;20045;-82
2023/12/12 03:49:41;;;;;;;3.35;1.58;;;;;;;;;;4952302;28;20023;-82
2023/12/12 03:52:08;;;;;;;2.97;1.55;;;;;;;;;;4984583;28;20058;-83
2023/12/12 03:54:34;;;;;;;4.85;2.15;;;;;;;;;;4952985;28;20027;-82
2023/12/12 03:57:04;;;;;;;4.03;1.70;;;;;;;;;;4985211;28;20034;-82
2023/12/12 03:59:30;;;;;;;7.03;1.75;;;;;;;;;;4951730;28;20030;-82
2023/12/12 04:01:57;;;;;;;5.18;1.80;;;;;;;;;;4969029;28;20057;-83
2023/12/12 04:04:23;;;;;;;5.50;2.00;;;;;;;;;;4984619;28;20015;-82
2023/12/12 04:06:52;;;;;;;5.22;1.98;;;;;;;;;;4984025;28;20041;-82
2023/12/12 04:09:28;;;;;;;6.50;1.50;;;;;;;;;;4984874;28;20042;-81
2023/12/12 04:12:04;;;;;;;5.13;1.80;;;;;;;;;;4953041;28;20098;-83
2023/12/12 04:14:30;;;;;;;6.20;2.30;;;;;;;;;;4951065;28;20037;-82
2023/12/12 04:16:59;;;;;;;4.80;2.33;;;;;;;;;;4981523;28;20046;-83
2023/12/12 04:19:25;;;;;;;4.95;1.95;;;;;;;;;;4943343;28;20072;-81
2023/12/12 04:21:59;;;;;;;2.70;1.40;;;;;;;;;;4975765;28;20039;-83
2023/12/12 04:24:27;;;;;;;;;;;;;;;;;;4956530;28;20035;-81
2023/12/12 04:26:53;;;;;;;4.60;1.73;;;;;;;;;;4973425;28;19910;-82
2023/12/12 04:29:19;;;;;;;3.60;1.65;;;;;;;;;;4947095;28;20018;-82
2023/12/12 04:31:48;;;;;;;6.38;2.17;;;;;;;;;;4979530;28;20070;-81
2023/12/12 04:34:14;;;;;;;4.05;2.22;;;;;;;;;;4950475;28;20035;-82
2023/12/12 04:36:40;;;;;;;4.40;2.08;;;;;;;;;;4982945;28;20041;-82
2023/12/12 04:39:08;;;;;;;4.38;1.65;;;;;;;;;;4951007;28;20093;-83
2023/12/12 04:41:39;;;;;;;3.78;1.35;;;;;;;;;;4999483;28;20046;-82
2023/12/12 04:44:08;;;;;;;8.52;2.25;;;;;;;;;;4943508;28;20069;-82
2023/12/12 04:46:34;;;;;;;7.20;2.05;;;;;;;;;;4956738;28;20066;-82
2023/12/12 04:49:02;;;;;;;4.75;2.40;;;;;;;;;;4972308;28;20488;-82
2023/12/12 04:51:29;;;;;;;5.38;1.83;;;;;;;;;;4990535;28;20035;-83
2023/12/12 04:53:55;;;;;;;7.53;1.73;;;;;;;;;;4945812;28;20115;-81
2023/12/12 04:56:21;;;;;;;6.00;1.80;;;;;;;;;;4946034;28;20050;-82
2023/12/12 04:58:47;;;;;;;6.18;1.73;;;;;;;;;;4946512;28;20058;-80
2023/12/12 05:01:18;;;;;;;4.45;1.70;;;;;;;;;;4978557;28;20062;-79
2023/12/12 05:03:45;;;;;;;7.55;1.75;;;;;;;;;;4945511;28;20061;-82
2023/12/12 05:06:12;;;;;;;5.90;2.38;;;;;;;;;;4958733;28;20046;-82
2023/12/12 05:08:39;;;;;;;4.32;1.58;;;;;;;;;;4972492;28;20039;-83
2023/12/12 05:11:05;;;;;;;5.75;1.88;;;;;;;;;;4940559;28;20500;-81
2023/12/12 05:13:31;;;;;;;4.68;1.83;;;;;;;;;;4941981;28;20027;-82
2023/12/12 05:16:06;;;;;;;;;;;;;;;;;;;;;
2023/12/12 05:18:35;;;;;;;7.72;2.05;;;;;;;;;;4990260;28;20035;-82
2023/12/12 05:21:03;;;;;;;3.88;1.90;;;;;;;;;;4988039;28;20065;-82
2023/12/12 05:23:29;;;;;;;9.52;2.08;;;;;;;;;;4970545;28;20077;-82
2023/12/12 05:25:59;;;;;;;5.35;2.33;;;;;;;;;;4968665;28;20041;-82
2023/12/12 05:28:26;;;;;;;6.55;1.98;;;;;;;;;;4939406;28;20034;-82
2023/12/12 05:30:52;;;;;;;6.22;2.28;;;;;;;;;;4970093;28;20029;-81
2023/12/12 05:33:18;;;;;;;5.60;2.28;;;;;;;;;;4939352;28;20050;-82
2023/12/12 05:35:48;;;;;;;8.77;2.60;;;;;;;;;;4942546;28;20037;-82
2023/12/12 05:38:14;;;;;;;5.13;2.38;;;;;;;;;;4941283;28;20047;-83
2023/12/12 05:40:43;;;;;;;5.40;2.20;;;;;;;;;;4977623;28;20070;-82
2023/12/12 05:43:17;;;;;;;6.60;2.35;;;;;;;;;;4963768;28;20019;-82
2023/12/12 05:45:43;;;;;;;6.65;2.30;;;;;;;;;;4979596;28;20400;-83
2023/12/12 05:48:15;;;;;;;5.32;1.85;;;;;;;;;;4945310;28;20284;-82
2023/12/12 05:50:45;;;;;;;4.13;1.90;;;;;;;;;;4975403;28;20038;-82
2023/12/12 05:53:14;;;;;;;6.88;2.10;;;;;;;;;;4991023;28;20038;-82
2023/12/12 05:55:40;;;;;;;6.30;2.17;;;;;;;;;;4957182;28;20107;-82
2023/12/12 05:58:11;;;;;;;8.77;2.88;;;;;;;;;;4960130;28;20046;-83
2023/12/12 06:00:39;;;;;;;5.65;2.33;;;;;;;;;;4945662;28;20081;-82
2023/12/12 06:03:06;;;;;;;;;;;;;;;;;;4977221;28;20078;-82
2023/12/12 06:05:37;;;;;;;10.43;2.53;;;;;;;;;;4994154;28;19915;-84
2023/12/12 06:08:07;;;;;;;11.73;2.75;;;;;;;;;;4963894;28;20062;-83
2023/12/12 06:10:35;;;;;;;7.60;2.95;;;;;;;;;;4946889;28;20035;-83
2023/12/12 06:13:08;;;;;;;5.10;2.75;;;;;;;;;;4995922;28;20050;-83
2023/12/12 06:15:39;;;;;;;7.65;2.75;;;;;;;;;;4949846;28;20034;-82
2023/12/12 06:18:14;;;;;;;6.72;2.15;;;;;;;;;;4980759;28;20091;-82
2023/12/12 06:20:50;;;;;;;4.65;2.33;;;;;;;;;;4981783;28;20038;-83
2023/12/12 06:23:20;;;;;;;5.57;2.30;;;;;;;;;;4964931;28;20106;-82
2023/12/12 06:25:54;;;;;;;3.88;1.88;;;;;;;;;;4981467;28;20045;-82
2023/12/12 06:28:24;;;;;;;4.97;2.65;;;;;;;;;;4963460;28;20031;-83
2023/12/12 06:30:56;;;;;;;8.63;2.70;;;;;;;;;;4994892;28;20034;-83
2023/12/12 06:33:52;;;;;;;5.70;2.50;;;;;;;;;;4978990;28;20035;-83
2023/12/12 06:36:24;;;;;;;11.93;2.78;;;;;;;;;;4975977;28;20121;-82
2023/12/12 06:38:55;;;;;;;6.20;2.83;;;;;;;;;;4971933;28;20066;-81
2023/12/12 06:41:22;;;;;;;6.15;2.75;;;;;;;;;;4959912;28;20039;-83
2023/12/12 06:43:52;;;;;;;6.85;2.83;;;;;;;;;;4959134;28;20039;-82
2023/12/12 06:46:20;;;;;;;8.57;2.78;;;;;;;;;;4944964;28;20042;-82
2023/12/12 06:48:47;;;;;;;6.28;3.00;;;;;;;;;;4977140;28;20043;-82
2023/12/12 06:51:16;;;;;;;4.13;2.35;;;;;;;;;;4959560;28;20042;-82
2023/12/12 06:53:42;;;;;;;5.93;2.83;;;;;;;;;;4960307;28;20046;-82
2023/12/12 06:56:15;;;;;;;11.27;3.65;;;;;;;;;;4943543;28;20043;-82
2023/12/12 06:58:43;;;;;;;6.05;3.15;;;;;;;;;;4975623;28;20051;-83
2023/12/12 07:01:24;;;;;;;7.75;3.10;;;;;;;;;;4979987;28;20026;-84
2023/12/12 07:04:00;;;;;;;6.25;3.03;;;;;;;;;;4995575;28;20026;-82
2023/12/12 07:06:27;;;;;;;10.25;3.88;;;;;;;;;;4963269;28;20065;-82
2023/12/12 07:08:53;;;;;;;7.30;3.13;;;;;;;;;;4946433;28;20046;-83
2023/12/12 07:11:22;;;;;;;9.50;3.88;;;;;;;;;;4930820;28;20035;-81
2023/12/12 07:13:53;;;;;;;7.88;3.08;;;;;;;;;;4963060;28;20034;-81
2023/12/12 07:16:26;;;;;;;7.72;3.35;;;;;;;;;;4996050;28;20026;-82
2023/12/12 07:18:53;;;;;;;9.38;3.20;;;;;;;;;;4980250;28;20051;-83
2023/12/12 07:21:22;;;;;;;6.93;4.07;;;;;;;;;;4949258;28;20031;-82
2023/12/12 07:23:54;;;;;;;11.70;3.47;;;;;;;;;;4948822;28;20045;-83
2023/12/12 07:26:24;;;;;;;5.93;2.90;;;;;;;;;;4964643;28;20035;-82
2023/12/12 07:28:51;;;;;;;6.10;3.28;;;;;;;;;;4964375;28;20062;-83
2023/12/12 07:31:18;;;;;;;8.05;3.33;;;;;;;;;;4963384;28;20047;-82
2023/12/12 07:33:44;;;;;;;8.65;3.70;;;;;;;;;;4948561;28;20033;-83
2023/12/12 07:36:20;;;;;;;8.02;3.20;;;;;;;;;;4984503;28;20095;-82
2023/12/12 07:38:46;;;;;;;13.80;3.90;;;;;;;;;;4983934;28;20050;-81
2023/12/12 07:41:15;;;;;;;7.95;3.92;;;;;;;;;;4949685;28;20086;-81
2023/12/12 07:43:43;;;;;;;10.38;4.25;;;;;;;;;;4946177;28;20033;-82
2023/12/12 07:46:12;;;;;;;15.30;3.50;;;;;;;;;;4944232;28;20045;-81
2023/12/12 07:48:42;;;;;;;7.82;3.88;;;;;;;;;;4974166;28;20142;-82
2023/12/12 07:51:10;;;;;;;9.68;3.90;;;;;;;;;;4975970;28;20045;-80
2023/12/12 07:53:38;;;;;;;;;;;;;;;;;;4946707;28;20054;-81
2023/12/12 07:56:17;;;;;;;9.20;4.32;;;;;;;;;;4980563;28;19910;-83
2023/12/12 07:58:45;;;;;;;11.35;4.38;;;;;;;;;;4975337;28;20117;-82
2023/12/12 08:01:11;;;;;;;8.50;4.95;;;;;;;;;;4975603;28;20050;-82
2023/12/12 08:03:45;;;;;;;9.10;4.72;;;;;;;;;;4977022;28;20077;-84
2023/12/12 08:06:15;;;;;;;10.20;4.50;;;;;;;;;;4976142;28;20047;-82
2023/12/12 08:09:03;;;;;;;9.32;4.38;;;;;;;;;;4976372;28;20118;-82
2023/12/12 08:12:01;;;;;;;15.63;4.57;;;;;;;;;;4995197;28;20039;-82
2023/12/12 08:14:35;;;;;;;7.75;3.80;;;;;;;;;;4948876;28;20027;-83
2023/12/12 08:17:01;;;;;;;11.48;4.50;;;;;;;;;;4982090;28;20047;-82
2023/12/12 08:19:29;;;;;;;8.95;4.13;;;;;;;;;;4950738;28;20050;-81
2023/12/12 08:22:03;;;;;;;11.65;4.28;;;;;;;;;;4967776;28;20050;-83
2023/12/12 08:24:40;;;;;;;11.02;4.15;;;;;;;;;;4967554;28;20042;-82
2023/12/12 08:27:09;;;;;;;7.03;4.10;;;;;;;;;;4998911;28;20066;-81
2023/12/12 08:29:52;;;;;;;14.18;4.55;;;;;;;;;;4982519;28;20062;-82
2023/12/12 08:32:25;;;;;;;13.32;4.38;;;;;;;;;;4983147;28;20047;-82
2023/12/12 08:35:16;;;;;;;18.02;4.72;;;;;;;;;;4982899;28;20019;-83
2023/12/12 08:41:02;;;;;;;14.68;5.80;;;;;;;;;;4998875;28;20066;-82
2023/12/12 08:43:39;;;;;;;18.15;6.18;;;;;;;;;;5062598;23;20030;-83
2023/12/12 08:49:38;;;;;;;14.47;5.67;;;;;;;;;;5280848;23;20018;-82
2023/12/12 08:52:10;;;;;;;18.25;6.68;;;;;;;;;;4983273;28;20091;-84
2023/12/12 08:54:45;;;;;;;19.80;7.63;;;;;;;;;;4966976;28;20020;-82
2023/12/12 08:57:19;;;;;;;20.70;8.23;;;;;;;;;;4978399;29;20087;-81
2023/12/12 08:59:55;;;;;;;;;;;;;;;;;;4979609;28;20054;-82
2023/12/12 09:02:30;;;;;;;15.27;7.57;;;;;;;;;;4963831;28;19985;-83
2023/12/12 09:05:04;;;;;;;14.15;5.13;;;;;;;;;;4946566;29;20043;-82
2023/12/12 09:07:35;;;;;;;15.23;4.20;;;;;;;;;;4963287;28;20042;-82
2023/12/12 09:10:30;;;;;;;15.27;5.70;;;;;;;;;;4978763;29;20083;-82
2023/12/12 09:13:03;;;;;;;12.13;4.03;;;;;;;;;;4948594;29;20074;-82
2023/12/12 09:15:33;;;;;;;11.90;4.45;;;;;;;;;;4964197;28;20055;-82
2023/12/12 09:18:01;;;;;;;;;;;;;;;;;;4979403;28;20011;-82
2023/12/12 09:20:52;;;;;;;11.82;4.25;;;;;;;;;;4975382;28;19952;-81
2023/12/12 09:23:20;;;;;;;11.80;4.60;;;;;;;;;;4941871;29;20035;-82
2023/12/12 09:25:49;;;;;;;13.35;4.00;;;;;;;;;;4974812;29;20039;-81
2023/12/12 09:28:20;;;;;;;10.77;3.42;;;;;;;;;;4959656;29;20019;-83
2023/12/12 09:30:47;;;;;;;10.88;4.13;;;;;;;;;;4944532;29;20058;-82
2023/12/12 09:33:18;;;;;;;7.63;3.03;;;;;;;;;;4945149;29;20118;-83
2023/12/12 09:36:02;;;;;;;6.82;2.95;;;;;;;;;;4973869;29;20123;-83
2023/12/12 09:38:36;;;;;;;8.60;3.65;;;;;;;;;;4961216;29;20051;-82
2023/12/12 09:41:03;;;;;;;9.70;3.25;;;;;;;;;;4946235;29;20036;-82
2023/12/12 09:43:46;;;;;;;9.93;3.40;;;;;;;;;;4976473;28;20070;-81
2023/12/12 09:46:21;;;;;;;7.47;2.53;;;;;;;;;;4960808;29;20046;-83
2023/12/12 09:48:52;;;;;;;9.25;2.90;;;;;;;;;;4955588;29;20450;-82
2023/12/12 09:51:28;;;;;;;10.30;2.60;;;;;;;;;;5079241;23;20054;-82
2023/12/12 09:54:26;;;;;;;10.00;2.50;;;;;;;;;;4963966;28;20072;-84
2023/12/12 09:57:08;;;;;;;13.63;3.33;;;;;;;;;;4979116;28;20043;-83
2023/12/12 09:59:36;;;;;;;8.45;2.95;;;;;;;;;;4947482;28;20011;-83
2023/12/12 10:02:18;;;;;;;9.32;2.72;;;;;;;;;;4995201;28;20098;-82
2023/12/12 10:04:58;;;;;;;10.95;2.67;;;;;;;;;;5258988;23;20077;-83
2023/12/12 10:07:31;;;;;;;11.05;2.40;;;;;;;;;;5000266;28;20034;-82
2023/12/12 10:10:04;;;;;;;14.77;2.47;;;;;;;;;;4966953;28;20038;-83
2023/12/12 10:12:35;;;;;;;11.68;3.05;;;;;;;;;;5000272;28;20094;-83
2023/12/12 10:15:22;;;;;;;9.50;3.10;;;;;;;;;;4980436;28;20026;-83
2023/12/12 10:17:56;;;;;;;15.65;2.58;;;;;;;;;;4995593;28;20038;-84
2023/12/12 10:20:35;;;;;;;10.65;2.78;;;;;;;;;;4950106;28;20034;-83
2023/12/12 10:23:04;;;;;;;11.93;3.33;;;;;;;;;;4964627;28;20043;-83
2023/12/12 10:25:35;;;;;;;11.00;2.90;;;;;;;;;;4960721;28;20055;-83
2023/12/12 10:28:04;;;;;;;8.65;2.72;;;;;;;;;;4978730;28;20034;-83
2023/12/12 10:30:37;;;;;;;11.50;3.15;;;;;;;;;;4978853;28;20023;-82
2023/12/12 10:33:11;;;;;;;6.60;2.05;;;;;;;;;;4963110;28;20043;-83
2023/12/12 10:35:43;;;;;;;11.48;2.25;;;;;;;;;;4996663;28;20046;-81
2023/12/12 10:38:13;;;;;;;4.90;2.22;;;;;;;;;;4980748;28;20034;-83
2023/12/12 10:40:40;;;;;;;11.23;2.15;;;;;;;;;;4978587;28;20030;-82
2023/12/12 10:43:13;;;;;;;8.13;2.50;;;;;;;;;;4963430;28;20027;-84
2023/12/12 10:45:41;;;;;;;7.53;2.30;;;;;;;;;;4980736;28;20034;-82
2023/12/12 10:48:12;;;;;;;7.35;2.05;;;;;;;;;;4980893;28;20014;-82
2023/12/12 10:50:41;;;;;;;;;;;;;;;;;;4949708;28;20058;-83
2023/12/12 10:53:11;;;;;;;10.60;1.92;;;;;;;;;;4996924;28;19921;-83
2023/12/12 10:55:41;;;;;;;12.70;2.80;;;;;;;;;;4965617;28;20025;-83
2023/12/12 10:58:11;;;;;;;12.73;2.50;;;;;;;;;;4948961;28;20034;-83
2023/12/12 11:00:42;;;;;;;11.70;2.60;;;;;;;;;;4965384;28;20027;-82
2023/12/12 11:03:09;;;;;;;9.20;2.45;;;;;;;;;;4997199;28;20027;-82
2023/12/12 11:05:38;;;;;;;8.68;2.47;;;;;;;;;;4948810;28;20023;-83
2023/12/12 11:08:05;;;;;;;8.02;2.20;;;;;;;;;;4948205;28;20050;-82
2023/12/12 11:10:32;;;;;;;11.23;1.75;;;;;;;;;;4951595;28;20021;-83
2023/12/12 11:13:00;;;;;;;9.15;2.55;;;;;;;;;;4982198;28;20054;-83
2023/12/12 11:15:37;;;;;;;10.13;2.13;;;;;;;;;;4982676;28;20030;-82
2023/12/12 11:18:09;;;;;;;10.85;2.55;;;;;;;;;;4966921;28;20039;-83
2023/12/12 11:20:40;;;;;;;5.50;1.85;;;;;;;;;;4963586;28;20042;-83
2023/12/12 11:23:34;;;;;;;5.05;2.03;;;;;;;;;;4982440;28;20023;-83
2023/12/12 11:26:06;;;;;;;6.72;2.13;;;;;;;;;;4951192;28;20146;-83
2023/12/12 11:28:35;;;;;;;12.52;3.28;;;;;;;;;;4982202;28;20066;-83
2023/12/12 11:31:08;;;;;;;10.90;2.63;;;;;;;;;;4981889;28;20050;-83
2023/12/12 11:33:36;;;;;;;11.38;2.50;;;;;;;;;;4965032;28;20451;-83
2023/12/12 11:36:07;;;;;;;7.57;2.10;;;;;;;;;;4980436;28;20034;-83
2023/12/12 11:38:37;;;;;;;10.15;2.20;;;;;;;;;;4979822;28;20055;-83
2023/12/12 11:41:09;;;;;;;8.10;2.15;;;;;;;;;;4963656;28;20055;-80
2023/12/12 11:43:38;;;;;;;10.73;1.88;;;;;;;;;;4962258;28;20038;-83
2023/12/12 11:46:30;;;;;;;7.63;1.92;;;;;;;;;;4979207;28;20063;-82
2023/12/12 11:48:56;;;;;;;7.65;2.15;;;;;;;;;;4977719;28;20046;-82
2023/12/12 11:51:49;;;;;;;6.18;2.20;;;;;;;;;;4959787;28;20031;-83
2023/12/12 11:54:26;;;;;;;7.15;2.10;;;;;;;;;;4975346;28;20073;-82
2023/12/12 11:57:24;;;;;;;11.05;2.15;;;;;;;;;;4974956;28;20098;-84
2023/12/12 12:00:06;;;;;;;10.27;2.67;;;;;;;;;;4976697;28;20027;-82
2023/12/12 12:02:37;;;;;;;7.22;2.35;;;;;;;;;;4944446;28;20045;-82
2023/12/12 12:05:07;;;;;;;11.68;2.72;;;;;;;;;;4993918;28;20031;-83
2023/12/12 12:07:38;;;;;;;11.02;2.40;;;;;;;;;;4978205;28;20101;-83
2023/12/12 12:10:09;;;;;;;10.00;2.72;;;;;;;;;;4962687;28;20034;-81
2023/12/12 12:12:39;;;;;;;10.35;2.25;;;;;;;;;;4946384;28;20027;-83
2023/12/12 12:15:52;;;;;;;13.38;2.50;;;;;;;;;;4996472;28;20035;-82
2023/12/12 12:18:44;;;;;;;13.30;2.95;;;;;;;;;;4976804;28;20027;-83
2023/12/12 12:21:11;;;;;;;13.73;3.25;;;;;;;;;;4946625;28;20085;-83
2023/12/12 12:23:39;;;;;;;6.80;2.33;;;;;;;;;;4948442;28;20039;-83
2023/12/12 12:26:08;;;;;;;7.97;2.90;;;;;;;;;;4979143;28;20049;-83
2023/12/12 12:28:37;;;;;;;9.68;2.78;;;;;;;;;;4993804;28;20042;-82
2023/12/12 12:31:08;;;;;;;11.35;3.65;;;;;;;;;;4979713;28;20035;-83
2023/12/12 12:33:41;;;;;;;12.00;3.55;;;;;;;;;;4978850;28;20086;-83
2023/12/12 12:36:08;;;;;;;14.80;3.50;;;;;;;;;;4980361;28;20055;-83
2023/12/12 12:38:48;;;;;;;13.60;2.65;;;;;;;;;;4997610;28;20062;-83
2023/12/12 12:41:23;;;;;;;13.10;4.20;;;;;;;;;;4949632;28;20054;-83
2023/12/12 12:44:30;;;;;;;17.08;3.22;;;;;;;;;;4980509;28;20035;-85
2023/12/12 12:47:27;;;;;;;11.52;2.83;;;;;;;;;;4985046;28;20038;-83
2023/12/12 12:50:07;;;;;;;16.63;4.22;;;;;;;;;;4980251;28;20107;-82
2023/12/12 12:52:50;;;;;;;12.77;3.35;;;;;;;;;;4965494;28;20038;-83
2023/12/12 12:55:35;;;;;;;9.77;2.13;;;;;;;;;;4968377;28;20046;-82
2023/12/12 13:01:45;;;;;;;8.93;2.40;;;;;;;;;;4999908;28;20021;-83
2023/12/12 13:04:23;;;;;;;9.63;2.97;;;;;;;;;;4983050;28;20046;-84
2023/12/12 13:06:52;;;;;;;12.68;2.33;;;;;;;;;;4966748;28;20120;-84
2023/12/12 13:09:24;;;;;;;10.80;2.53;;;;;;;;;;4984033;28;20045;-84
2023/12/12 13:15:30;;;;;;;22.60;2.90;;;;;;;;;;5741563;23;20046;-83
2023/12/12 13:18:49;;;;;;;14.50;1.80;;;;;;;;;;5005942;28;20030;-83
2023/12/12 13:22:09;;;;;;;10.93;1.90;;;;;;;;;;5019001;28;20069;-83
2023/12/12 13:25:08;;;;;;;12.27;2.40;;;;;;;;;;5005650;28;20053;-83
2023/12/12 13:32:51;;;;;;;11.00;1.92;;;;;;;;;;4951996;28;20103;-83
2023/12/12 13:43:43;;;;;;;13.48;2.30;;;;;;;;;;4957086;28;20047;-84
2023/12/12 13:46:09;;;;;;;12.43;2.10;;;;;;;;;;4922972;29;20103;-84
2023/12/12 13:48:35;;;;;;;10.68;3.33;;;;;;;;;;4924841;29;20059;-84
2023/12/12 13:51:10;;;;;;;16.88;2.55;;;;;;;;;;4924015;29;20103;-85
2023/12/12 13:53:39;;;;;;;10.65;2.20;;;;;;;;;;4911166;29;20028;-85
2023/12/12 13:56:31;;;;;;;17.00;3.45;;;;;;;;;;4911230;29;20068;-84
2023/12/12 14:02:55;;;;;;;11.30;2.90;;;;;;;;;;4940277;28;20039;-84
2023/12/12 14:05:29;;;;;;;8.00;3.08;;;;;;;;;;4956061;28;20050;-83
2023/12/12 14:08:04;;;;;;;7.38;1.92;;;;;;;;;;4966031;28;20044;-82
2023/12/12 14:10:51;;;;;;;7.78;1.88;;;;;;;;;;4985272;28;20106;-84
2023/12/12 14:13:22;;;;;;;10.57;2.42;;;;;;;;;;4979476;28;20051;-84
2023/12/12 14:15:53;;;;;;;9.48;2.25;;;;;;;;;;4966504;28;20015;-84
2023/12/12 14:18:20;;;;;;;11.68;2.40;;;;;;;;;;4982347;28;20039;-85
2023/12/12 14:20:51;;;;;;;14.70;3.15;;;;;;;;;;4968354;28;20041;-82
2023/12/12 14:23:17;;;;;;;12.52;2.53;;;;;;;;;;4968524;28;20061;-83
2023/12/12 14:25:47;;;;;;;15.10;2.67;;;;;;;;;;5001304;28;20034;-84
2023/12/12 14:31:12;;;;;;;14.18;2.92;;;;;;;;;;4985340;28;20137;-82
2023/12/12 14:33:55;;;;;;;17.83;4.13;;;;;;;;;;4980254;28;20046;-83
2023/12/12 14:36:25;;;;;;;10.70;2.60;;;;;;;;;;4988137;28;20061;-82
2023/12/12 14:39:00;;;;;;;9.70;2.30;;;;;;;;;;5001238;28;20046;-84
2023/12/12 14:41:28;;;;;;;15.80;3.38;;;;;;;;;;4983542;28;20126;-83
2023/12/12 14:43:57;;;;;;;8.52;2.20;;;;;;;;;;5000994;28;20037;-81
2023/12/12 14:46:35;;;;;;;13.95;3.05;;;;;;;;;;4988721;28;20042;-82
2023/12/12 14:49:07;;;;;;;12.32;3.22;;;;;;;;;;4985941;28;20034;-82
2023/12/12 14:51:39;;;;;;;7.55;2.03;;;;;;;;;;5002923;28;20073;-82
2023/12/12 14:54:18;;;;;;;8.60;2.40;;;;;;;;;;5005152;28;20034;-84
2023/12/12 14:57:13;;;;;;;8.40;2.20;;;;;;;;;;5004635;28;20087;-83
2023/12/12 14:59:56;;;;;;;16.55;2.65;;;;;;;;;;5048838;23;20122;-82
2023/12/12 15:02:27;;;;;;;14.02;2.70;;;;;;;;;;4948934;29;20030;-81
2023/12/12 15:04:53;;;;;;;14.98;3.25;;;;;;;;;;4948348;29;20099;-84
2023/12/12 15:07:20;;;;;;;17.25;3.05;;;;;;;;;;4965917;29;20083;-83
2023/12/12 15:09:51;;;;;;;17.15;5.07;;;;;;;;;;4932078;29;20035;-83
2023/12/12 15:12:21;;;;;;;10.90;3.20;;;;;;;;;;4949020;28;20078;-83
2023/12/12 15:14:50;;;;;;;19.70;3.00;;;;;;;;;;4947063;29;20043;-83
2023/12/12 15:17:16;;;;;;;16.75;2.78;;;;;;;;;;4946491;29;20043;-83
2023/12/12 15:19:45;;;;;;;12.85;3.20;;;;;;;;;;4927648;29;20046;-84
2023/12/12 15:22:16;;;;;;;14.93;3.00;;;;;;;;;;4927378;29;20035;-83
2023/12/12 15:24:44;;;;;;;16.98;4.57;;;;;;;;;;4911467;29;20492;-83
2023/12/12 15:27:36;;;;;;;13.03;3.63;;;;;;;;;;4923783;29;20107;-83
2023/12/12 15:30:06;;;;;;;13.57;2.78;;;;;;;;;;4940721;29;20278;-83
2023/12/12 15:32:32;;;;;;;15.13;3.13;;;;;;;;;;4906878;29;20031;-82
2023/12/12 15:35:02;;;;;;;18.08;3.05;;;;;;;;;;4921230;29;20035;-83
2023/12/12 15:37:28;;;;;;;14.57;3.40;;;;;;;;;;4908279;29;20039;-82
2023/12/12 15:40:01;;;;;;;14.75;2.55;;;;;;;;;;4942925;29;20023;-82